createdAt,value
2022-09-03T00:01:57.956Z,12.02
2022-09-03T00:05:07.563Z,12.02
2022-09-03T00:08:31.482Z,11.99
2022-09-03T00:11:52.761Z,11.92
2022-09-03T00:15:11.031Z,11.86
2022-09-03T00:18:21.820Z,11.84
2022-09-03T00:21:55.084Z,11.72
2022-09-03T00:25:03.074Z,11.76
2022-09-03T00:28:16.902Z,11.70
2022-09-03T00:31:39.260Z,11.66
2022-09-03T00:34:48.779Z,11.61
2022-09-03T00:37:53.447Z,11.59
2022-09-03T00:41:01.571Z,11.54
2022-09-03T00:44:07.163Z,11.41
2022-09-03T00:47:18.331Z,11.42
2022-09-03T00:50:35.490Z,11.40
2022-09-03T00:53:52.088Z,11.38
2022-09-03T00:57:25.886Z,11.32
2022-09-03T01:00:29.308Z,11.27
2022-09-03T01:03:35.068Z,11.21
2022-09-03T01:07:14.190Z,11.18
2022-09-03T01:10:44.589Z,11.17
2022-09-03T01:14:09.534Z,11.13
2022-09-03T01:17:50.558Z,11.11
2022-09-03T01:21:13.655Z,11.11
2022-09-03T01:24:38.267Z,11.08
2022-09-03T01:27:44.001Z,11.02
2022-09-03T01:30:59.438Z,10.91
2022-09-03T01:34:16.835Z,10.87
2022-09-03T01:52:13.961Z,10.51
2022-09-03T01:55:25.479Z,10.49
2022-09-03T01:58:44.377Z,10.38
2022-09-03T02:01:56.956Z,10.35
2022-09-03T02:05:17.168Z,10.27
2022-09-03T02:08:20.737Z,10.23
2022-09-03T02:11:23.903Z,10.21
2022-09-03T02:14:29.223Z,10.14
2022-09-03T02:17:33.935Z,10.05
2022-09-03T02:20:38.528Z,10.07
2022-09-03T02:23:42.262Z,10.01
2022-09-03T02:26:46.686Z,10.00
2022-09-03T02:29:49.406Z,9.97
2022-09-03T02:32:52.368Z,9.95
2022-09-03T02:35:55.430Z,9.94
2022-09-03T02:38:58.401Z,9.84
2022-09-03T02:42:01.350Z,9.81
2022-09-03T02:45:20.005Z,9.80
2022-09-03T02:48:24.729Z,9.80
2022-09-03T02:51:32.800Z,9.83
2022-09-03T02:54:39.796Z,9.79
2022-09-03T02:57:43.248Z,9.73
2022-09-03T03:00:45.799Z,9.73
2022-09-03T03:03:49.004Z,9.69
2022-09-03T03:06:51.547Z,9.61
2022-09-03T03:09:54.548Z,9.51
2022-09-03T03:12:57.263Z,9.55
2022-09-03T03:16:02.746Z,9.52
2022-09-03T03:19:05.435Z,9.50
2022-09-03T03:22:08.366Z,9.44
2022-09-03T03:25:11.068Z,9.41
2022-09-03T03:28:14.385Z,9.41
2022-09-03T03:31:22.249Z,9.39
2022-09-03T03:34:25.253Z,9.40
2022-09-03T03:37:27.866Z,9.40
2022-09-03T03:40:31.401Z,9.35
2022-09-03T03:43:33.969Z,9.29
2022-09-03T03:46:41.798Z,9.23
2022-09-03T03:49:44.456Z,9.21
2022-09-03T03:52:48.273Z,9.20
2022-09-03T03:56:02.582Z,9.21
2022-09-03T03:59:05.446Z,9.25
2022-09-03T04:02:08.222Z,9.28
2022-09-03T04:05:11.566Z,9.24
2022-09-03T04:08:14.146Z,9.22
2022-09-03T04:11:22.853Z,9.21
2022-09-03T04:14:27.209Z,9.10
2022-09-03T04:17:31.031Z,9.15
2022-09-03T04:20:33.622Z,9.14
2022-09-03T04:23:39.243Z,9.03
2022-09-03T04:26:41.816Z,9.11
2022-09-03T04:29:44.710Z,9.01
2022-09-03T04:32:54.685Z,9.08
2022-09-03T04:36:20.894Z,9.06
2022-09-03T04:39:23.525Z,9.16
2022-09-03T04:42:27.608Z,9.24
2022-09-03T04:45:31.155Z,9.21
2022-09-03T04:48:37.760Z,9.37
2022-09-03T04:51:40.673Z,9.43
2022-09-03T04:54:43.905Z,9.51
2022-09-03T04:57:46.474Z,9.61
2022-09-03T05:00:49.657Z,9.77
2022-09-03T05:03:52.666Z,9.82
2022-09-03T05:06:55.705Z,9.98
2022-09-03T05:09:58.669Z,10.07
2022-09-03T05:13:04.456Z,10.32
2022-09-03T05:16:09.585Z,10.69
2022-09-03T05:19:12.659Z,11.85
2022-09-03T05:22:21.694Z,12.96
2022-09-03T05:25:25.056Z,13.92
2022-09-03T05:28:30.137Z,14.62
2022-09-03T05:31:35.134Z,15.35
2022-09-03T05:34:37.748Z,16.05
2022-09-03T05:37:40.852Z,16.40
2022-09-03T05:40:44.375Z,16.99
2022-09-03T05:43:53.518Z,17.68
2022-09-03T05:46:56.096Z,18.54
2022-09-03T05:49:58.992Z,19.22
2022-09-03T05:53:01.686Z,20.10
2022-09-03T05:56:13.482Z,20.91
2022-09-03T05:59:16.229Z,21.18
2022-09-03T06:02:19.833Z,21.41
2022-09-03T06:05:22.918Z,21.72
2022-09-03T06:08:26.451Z,22.44
2022-09-03T06:11:32.990Z,22.11
2022-09-03T06:14:35.640Z,22.99
2022-09-03T06:17:38.922Z,23.01
2022-09-03T06:20:41.521Z,22.62
2022-09-03T06:23:49.191Z,22.70
2022-09-03T06:26:51.844Z,23.41
2022-09-03T06:29:54.895Z,23.33
2022-09-03T06:32:58.045Z,23.86
2022-09-03T06:36:04.574Z,24.19
2022-09-03T06:39:10.829Z,25.08
2022-09-03T06:42:14.114Z,24.95
2022-09-03T06:45:18.422Z,25.19
2022-09-03T06:48:21.355Z,25.42
2022-09-03T06:51:26.309Z,25.56
2022-09-03T06:54:29.249Z,26.12
2022-09-03T06:57:31.892Z,26.36
2022-09-03T07:00:34.885Z,25.94
2022-09-03T07:03:40.073Z,25.51
2022-09-03T07:06:43.412Z,25.03
2022-09-03T07:09:48.333Z,25.37
2022-09-03T07:12:51.436Z,25.53
2022-09-03T07:16:06.042Z,26.55
2022-09-03T07:19:09.636Z,24.88
2022-09-03T07:22:12.340Z,25.21
2022-09-03T07:25:15.575Z,25.34
2022-09-03T07:28:18.585Z,25.63
2022-09-03T07:31:26.584Z,24.84
2022-09-03T07:34:29.272Z,24.98
2022-09-03T07:37:32.914Z,25.68
2022-09-03T07:40:36.016Z,25.53
2022-09-03T07:43:46.026Z,24.79
2022-09-03T07:46:50.159Z,26.10
2022-09-03T07:49:53.135Z,25.97
2022-09-03T07:52:59.280Z,25.79
2022-09-03T07:56:08.421Z,26.16
2022-09-03T07:59:12.067Z,25.34
2022-09-03T08:02:15.086Z,25.39
2022-09-03T08:05:20.670Z,25.44
2022-09-03T08:08:23.891Z,26.35
2022-09-03T08:11:28.252Z,26.81
2022-09-03T08:14:31.743Z,26.76
2022-09-03T08:17:34.653Z,26.83
2022-09-03T08:20:39.796Z,26.36
2022-09-03T08:23:45.161Z,26.50
2022-09-03T08:26:51.982Z,26.30
2022-09-03T08:29:55.386Z,25.04
2022-09-03T08:33:01.831Z,26.45
2022-09-03T08:36:12.774Z,25.38
2022-09-03T08:39:15.593Z,25.92
2022-09-03T08:42:33.178Z,26.06
2022-09-03T08:45:38.144Z,25.09
2022-09-03T08:48:41.164Z,25.59
2022-09-03T08:51:46.450Z,25.13
2022-09-03T08:54:51.731Z,25.68
2022-09-03T08:58:09.809Z,26.10
2022-09-03T09:01:31.876Z,25.89
2022-09-03T09:04:37.445Z,24.69
2022-09-03T09:08:10.102Z,25.51
2022-09-03T09:11:24.959Z,24.38
2022-09-03T09:14:30.834Z,25.41
2022-09-03T09:17:52.597Z,24.59
2022-09-03T09:21:08.944Z,23.99
2022-09-03T09:24:23.243Z,24.00
2022-09-03T09:27:26.240Z,24.07
2022-09-03T09:30:31.046Z,24.32
2022-09-03T09:33:35.529Z,24.51
2022-09-03T09:36:47.055Z,24.44
2022-09-03T09:39:59.375Z,23.83
2022-09-03T09:43:16.319Z,23.97
2022-09-03T09:46:25.578Z,24.14
2022-09-03T09:49:37.080Z,24.55
2022-09-03T09:52:40.068Z,24.25
2022-09-03T09:55:54.187Z,23.85
2022-09-03T09:59:08.507Z,23.73
2022-09-03T10:02:22.393Z,23.92
2022-09-03T10:05:33.204Z,24.72
2022-09-03T10:08:35.869Z,24.15
2022-09-03T10:11:44.051Z,23.97
2022-09-03T10:15:09.982Z,23.56
2022-09-03T10:18:38.697Z,24.42
2022-09-03T10:21:47.446Z,24.64
2022-09-03T10:24:58.956Z,24.26
2022-09-03T10:28:02.203Z,23.92
2022-09-03T10:31:17.936Z,24.35
2022-09-03T10:34:38.721Z,24.63
2022-09-03T10:37:59.782Z,23.82
2022-09-03T10:41:08.227Z,23.70
2022-09-03T10:44:13.630Z,24.33
2022-09-03T10:47:29.546Z,24.76
2022-09-03T10:50:48.613Z,24.74
2022-09-03T10:53:54.102Z,24.97
2022-09-03T10:57:41.367Z,24.97
2022-09-03T11:01:00.023Z,24.85
2022-09-03T11:04:19.028Z,25.20
2022-09-03T11:07:26.671Z,25.21
2022-09-03T11:10:32.419Z,24.75
2022-09-03T11:13:42.505Z,25.01
2022-09-03T11:16:51.494Z,25.10
2022-09-03T11:20:11.589Z,25.01
2022-09-03T11:23:16.435Z,24.83
2022-09-03T11:26:21.638Z,24.54
2022-09-03T11:29:30.648Z,24.45
2022-09-03T11:32:33.274Z,24.52
2022-09-03T11:35:36.160Z,24.94
2022-09-03T11:38:39.545Z,24.35
2022-09-03T11:41:42.495Z,24.55
2022-09-03T11:44:51.856Z,23.67
2022-09-03T11:47:55.062Z,24.14
2022-09-03T11:50:57.634Z,23.96
2022-09-03T11:54:06.104Z,24.32
2022-09-03T11:57:11.786Z,24.62
2022-09-03T12:00:24.860Z,24.43
2022-09-03T12:03:45.874Z,24.86
2022-09-03T12:07:11.811Z,24.90
2022-09-03T12:10:32.551Z,24.35
2022-09-03T12:13:40.473Z,24.43
2022-09-03T12:17:04.917Z,24.46
2022-09-03T12:20:14.844Z,24.16
2022-09-03T12:23:31.708Z,24.42
2022-09-03T12:26:41.896Z,24.35
2022-09-03T12:30:02.199Z,24.42
2022-09-03T12:33:11.052Z,24.73
2022-09-03T12:36:15.252Z,24.30
2022-09-03T12:40:03.654Z,24.32
2022-09-03T12:42:42.541Z,24.70
2022-09-03T12:49:30.962Z,24.96
2022-09-03T12:52:48.433Z,24.94
2022-09-03T12:55:54.890Z,24.72
2022-09-03T12:59:13.591Z,24.74
2022-09-03T13:02:25.248Z,24.84
2022-09-03T13:05:37.297Z,24.65
2022-09-03T13:08:47.700Z,24.85
2022-09-03T13:11:52.681Z,24.94
2022-09-03T13:14:56.151Z,24.74
2022-09-03T13:18:23.762Z,24.63
2022-09-03T13:21:33.721Z,24.71
2022-09-03T13:24:42.407Z,24.59
2022-09-03T13:28:34.515Z,24.62
2022-09-03T13:31:55.558Z,24.74
2022-09-03T13:35:07.308Z,24.55
2022-09-03T13:38:28.254Z,24.51
2022-09-03T13:41:36.691Z,24.21
2022-09-03T13:44:50.220Z,24.21
2022-09-03T13:48:25.389Z,24.42
2022-09-03T13:51:37.367Z,24.49
2022-09-03T13:54:50.047Z,24.54
2022-09-03T13:58:02.165Z,24.23
2022-09-03T14:01:13.658Z,24.15
2022-09-03T14:04:32.178Z,24.07
2022-09-03T14:07:54.360Z,24.28
2022-09-03T14:11:21.882Z,23.90
2022-09-03T14:14:46.796Z,23.89
2022-09-03T14:18:14.130Z,23.80
2022-09-03T14:21:35.290Z,24.03
2022-09-03T14:24:41.174Z,24.05
2022-09-03T14:27:44.185Z,23.99
2022-09-03T14:31:01.627Z,23.79
2022-09-03T14:34:36.542Z,24.02
2022-09-03T14:37:55.357Z,24.08
2022-09-03T14:41:20.766Z,24.02
2022-09-03T14:44:52.672Z,23.89
2022-09-03T14:48:01.731Z,23.89
2022-09-03T14:51:12.988Z,23.89
2022-09-03T14:55:04.287Z,23.88
2022-09-03T14:58:19.467Z,23.73
2022-09-03T15:01:39.360Z,23.75
2022-09-03T15:05:19.988Z,23.60
2022-09-03T15:08:28.630Z,23.55
2022-09-03T15:11:35.328Z,23.57
2022-09-03T15:14:54.887Z,23.60
2022-09-03T15:18:14.618Z,23.59
2022-09-03T15:21:43.153Z,23.34
2022-09-03T15:25:05.889Z,23.29
2022-09-03T15:28:20.347Z,23.18
2022-09-03T15:31:52.023Z,23.09
2022-09-03T15:35:12.703Z,22.94
2022-09-03T15:38:38.112Z,22.84
2022-09-03T15:41:50.586Z,22.82
2022-09-03T15:44:56.905Z,22.81
2022-09-03T15:48:30.677Z,22.88
2022-09-03T15:51:56.540Z,22.87
2022-09-03T15:55:37.151Z,22.79
2022-09-03T15:59:03.789Z,22.68
2022-09-03T16:02:20.981Z,22.63
2022-09-03T16:05:39.351Z,22.52
2022-09-03T16:08:48.728Z,22.47
2022-09-03T16:12:20.493Z,22.39
2022-09-03T16:15:28.475Z,22.32
2022-09-03T16:18:40.114Z,22.21
2022-09-03T16:21:49.577Z,22.10
2022-09-03T16:25:10.302Z,22.10
2022-09-03T16:28:18.763Z,22.03
2022-09-03T16:31:46.214Z,22.01
2022-09-03T16:34:55.807Z,21.95
2022-09-03T16:38:11.148Z,21.84
2022-09-03T16:41:13.888Z,21.71
2022-09-03T16:44:23.066Z,21.54
2022-09-03T16:47:37.875Z,21.36
2022-09-03T16:50:46.646Z,21.17
2022-09-03T16:54:05.670Z,21.00
2022-09-03T16:57:18.963Z,20.81
2022-09-03T17:00:22.444Z,20.59
2022-09-03T17:03:49.998Z,20.40
2022-09-03T17:07:04.149Z,20.29
2022-09-03T17:10:15.365Z,20.09
2022-09-03T17:13:45.885Z,19.92
2022-09-03T17:17:00.709Z,19.74
2022-09-03T17:20:17.551Z,19.54
2022-09-03T17:23:43.034Z,19.25
2022-09-03T17:26:55.514Z,19.09
2022-09-03T17:30:31.148Z,18.86
2022-09-03T17:34:01.985Z,18.70
2022-09-03T17:37:23.111Z,18.47
2022-09-03T17:40:41.810Z,18.29
2022-09-03T17:44:18.693Z,18.09
2022-09-03T17:47:49.263Z,17.99
2022-09-03T17:50:59.328Z,17.84
2022-09-03T17:54:32.267Z,17.70
2022-09-03T17:57:45.888Z,17.51
2022-09-03T18:01:16.221Z,17.32
2022-09-03T18:04:55.122Z,17.18
2022-09-03T18:08:07.099Z,17.01
2022-09-03T18:11:12.066Z,16.74
2022-09-03T18:14:24.398Z,16.62
2022-09-03T18:17:33.724Z,16.54
2022-09-03T18:21:29.327Z,16.35
2022-09-03T18:25:03.607Z,16.14
2022-09-03T18:28:29.601Z,16.00
2022-09-03T18:31:51.111Z,15.92
2022-09-03T18:35:12.493Z,15.74
2022-09-03T18:38:39.335Z,15.55
2022-09-03T18:42:16.321Z,15.41
2022-09-03T18:46:45.942Z,15.29
2022-09-03T18:49:50.921Z,15.13
2022-09-03T18:53:33.726Z,15.04
2022-09-03T18:57:07.469Z,14.94
2022-09-03T19:00:31.997Z,14.84
2022-09-03T19:04:31.021Z,14.78
2022-09-03T19:08:15.901Z,14.69
2022-09-03T19:12:04.461Z,14.53
2022-09-03T19:15:41.590Z,14.46
2022-09-03T19:19:17.103Z,14.44
2022-09-03T19:22:53.886Z,14.40
2022-09-03T19:26:23.868Z,14.34
2022-09-03T19:30:25.508Z,14.29
2022-09-03T19:34:02.421Z,14.28
2022-09-03T19:37:28.921Z,14.24
2022-09-03T19:41:03.840Z,14.10
2022-09-03T19:45:05.542Z,14.08
2022-09-03T19:48:51.491Z,14.01
2022-09-03T19:52:37.853Z,13.95
2022-09-03T19:56:22.010Z,13.90
2022-09-03T19:59:48.619Z,13.90
2022-09-03T20:03:10.006Z,13.88
2022-09-03T20:06:32.622Z,13.85
2022-09-03T20:09:58.734Z,13.85
2022-09-03T20:13:08.794Z,13.78
2022-09-03T20:16:27.111Z,13.82
2022-09-03T20:19:53.800Z,13.76
2022-09-03T20:23:25.751Z,13.81
2022-09-03T20:26:51.883Z,13.78
2022-09-03T20:30:06.618Z,13.77
2022-09-03T20:33:22.811Z,13.73
2022-09-03T20:36:34.489Z,13.73
2022-09-03T20:39:47.677Z,13.64
2022-09-03T20:43:02.481Z,13.68
2022-09-03T20:46:08.226Z,13.62
2022-09-03T20:49:40.486Z,13.69
2022-09-03T20:53:04.969Z,13.68
2022-09-03T20:56:29.602Z,13.62
2022-09-03T20:59:46.457Z,13.59
2022-09-03T21:03:07.646Z,13.62
2022-09-03T21:06:16.886Z,13.58
2022-09-03T21:09:52.958Z,13.58
2022-09-03T21:13:11.790Z,13.55
2022-09-03T21:17:18.908Z,13.53
2022-09-03T21:20:46.134Z,13.48
2022-09-03T21:24:17.500Z,13.43
2022-09-03T21:27:24.411Z,13.28
2022-09-03T21:30:29.766Z,13.27
2022-09-03T21:33:38.134Z,13.26
2022-09-03T21:36:43.409Z,13.22
2022-09-03T21:39:54.581Z,13.18
2022-09-03T21:43:08.250Z,13.13
2022-09-03T21:46:36.380Z,13.06
2022-09-03T21:49:49.110Z,12.97
2022-09-03T21:52:59.227Z,12.93
2022-09-03T21:56:30.578Z,12.86
2022-09-03T21:59:36.158Z,12.82
2022-09-03T22:02:39.954Z,12.77
2022-09-03T22:05:55.391Z,12.71
2022-09-03T22:09:14.273Z,12.67
2022-09-03T22:12:20.164Z,12.65
2022-09-03T22:15:23.422Z,12.60
2022-09-03T22:18:32.502Z,12.61
2022-09-03T22:21:59.854Z,12.60
2022-09-03T22:25:24.888Z,12.56
2022-09-03T22:28:42.251Z,12.55
2022-09-03T22:32:06.986Z,12.54
2022-09-03T22:35:36.346Z,12.46
2022-09-03T22:38:51.394Z,12.50
2022-09-03T22:42:34.559Z,12.47
2022-09-03T22:45:49.303Z,12.47
2022-09-03T22:49:14.598Z,12.48
2022-09-03T22:52:39.384Z,12.49
2022-09-03T22:55:52.722Z,12.48
2022-09-03T22:58:55.840Z,12.45
2022-09-03T23:02:17.084Z,12.43
2022-09-03T23:05:34.913Z,12.33
2022-09-03T23:08:45.719Z,12.36
2022-09-03T23:11:57.501Z,12.36
2022-09-03T23:15:02.065Z,12.34
2022-09-03T23:18:17.856Z,12.30
2022-09-03T23:21:27.314Z,12.28
2022-09-03T23:24:43.225Z,12.28
2022-09-03T23:28:11.115Z,12.17
2022-09-03T23:31:24.006Z,12.16
2022-09-03T23:34:27.570Z,12.15
2022-09-03T23:38:03.975Z,12.13
2022-09-03T23:41:10.581Z,12.03
2022-09-03T23:44:37.064Z,12.00
2022-09-03T23:47:58.017Z,11.97
2022-09-03T23:51:26.385Z,11.93
2022-09-03T23:54:34.714Z,11.90
2022-09-03T23:57:40.596Z,11.89
